Time;durP1;ratioP1;P1;durP2;ratioP2;P2;SDS_P1;SDS_P2;PMS_P1;PMS_P2;Temp;Humidity;BMP_temperature;BMP_pressure;BME280_temperature;BME280_humidity;BME280_pressure;Samples;Min_cycle;Max_cycle;Signal;HPM_P1;HPM_P2
2021/01/01 00:01:10;;;;;;;159.27;108.20;;;2.80;93.80;;;;;;4973709;28;20039;-74
2021/01/01 00:03:35;;;;;;;144.98;95.93;;;2.80;93.60;;;;;;4973851;28;20047;-74
2021/01/01 00:06:01;;;;;;;132.85;87.63;;;2.90;93.70;;;;;;4988706;28;20031;-74
2021/01/01 00:08:29;;;;;;;131.98;88.93;;;3.10;93.70;;;;;;4988699;28;20045;-74
2021/01/01 00:10:55;;;;;;;119.57;74.78;;;2.90;93.50;;;;;;4973672;28;20059;-74
2021/01/01 00:13:21;;;;;;;96.93;64.35;;;3.00;93.60;;;;;;4973509;28;20038;-74
2021/01/01 00:15:49;;;;;;;77.07;49.70;;;2.90;93.50;;;;;;4988666;28;20069;-74
2021/01/01 00:18:15;;;;;;;78.00;50.65;;;2.90;93.60;;;;;;4973539;28;20048;-74
2021/01/01 00:20:42;;;;;;;77.88;46.17;;;3.00;93.60;;;;;;4973435;28;20447;-74
2021/01/01 00:23:09;;;;;;;75.53;46.97;;;3.00;93.50;;;;;;4973627;28;20114;-74
2021/01/01 00:25:36;;;;;;;73.53;47.28;;;3.00;93.60;;;;;;4973529;28;20415;-74
2021/01/01 00:28:02;;;;;;;71.35;47.40;;;3.10;93.50;;;;;;4973569;28;20039;-74
2021/01/01 00:30:28;;;;;;;73.00;49.95;;;3.10;93.50;;;;;;4988304;28;20062;-73
2021/01/01 00:32:54;;;;;;;76.15;50.22;;;3.10;93.40;;;;;;4973420;28;20428;-74
2021/01/01 00:35:20;;;;;;;78.47;49.50;;;3.10;93.40;;;;;;4973293;28;20066;-74
2021/01/01 00:37:46;;;;;;;80.10;50.13;;;3.10;93.50;;;;;;4973564;28;20066;-73
2021/01/01 00:40:12;;;;;;;83.90;51.97;;;3.10;93.30;;;;;;4972148;28;20035;-74
2021/01/01 00:42:38;;;;;;;75.07;49.05;;;3.10;93.30;;;;;;4973248;28;20531;-74
2021/01/01 00:45:05;;;;;;;70.55;46.75;;;3.20;93.40;;;;;;4973398;28;20045;-74
2021/01/01 00:47:34;;;;;;;70.38;45.85;;;3.20;93.30;;;;;;4987815;28;20031;-73
2021/01/01 00:50:00;;;;;;;65.22;43.25;;;3.10;93.20;;;;;;4973554;28;20535;-74
2021/01/01 00:52:26;;;;;;;65.97;42.85;;;3.30;93.10;;;;;;4973276;28;20475;-74
2021/01/01 00:54:51;;;;;;;66.88;41.42;;;3.20;93.10;;;;;;4973518;28;20479;-74
2021/01/01 00:57:17;;;;;;;68.65;41.92;;;3.20;93.00;;;;;;4973483;28;20035;-74
2021/01/01 00:59:43;;;;;;;63.08;41.85;;;3.20;93.30;;;;;;4972039;28;20039;-74
2021/01/01 01:02:09;;;;;;;67.68;40.58;;;3.20;93.20;;;;;;4988064;28;20046;-74
2021/01/01 01:04:34;;;;;;;71.43;44.20;;;3.20;93.10;;;;;;4975344;28;20042;-74
2021/01/01 01:07:00;;;;;;;67.32;44.13;;;3.40;93.20;;;;;;4976947;28;20042;-74
2021/01/01 01:09:26;;;;;;;69.30;43.67;;;3.20;93.00;;;;;;4976901;28;20043;-74
2021/01/01 01:11:53;;;;;;;64.40;40.97;;;3.20;93.00;;;;;;4991763;28;20510;-74
2021/01/01 01:14:19;;;;;;;73.90;44.45;;;3.20;93.00;;;;;;4977067;28;20046;-74
2021/01/01 01:16:45;;;;;;;63.95;40.50;;;3.20;93.00;;;;;;4976596;28;20396;-74
2021/01/01 01:19:10;;;;;;;60.30;38.55;;;3.20;93.20;;;;;;4976667;28;20039;-74
2021/01/01 01:21:39;;;;;;;58.92;37.95;;;3.20;93.30;;;;;;4976637;28;20046;-74
2021/01/01 01:24:06;;;;;;;57.10;34.97;;;4.20;93.20;;;;;;4976717;28;20407;-74
2021/01/01 01:26:31;;;;;;;55.92;34.83;;;3.20;93.10;;;;;;4991620;28;20606;-74
2021/01/01 01:28:57;;;;;;;54.63;34.97;;;3.20;93.00;;;;;;4991277;28;20110;-74
2021/01/01 01:31:23;;;;;;;54.55;35.67;;;3.20;93.00;;;;;;4975217;28;20039;-74
2021/01/01 01:33:49;;;;;;;53.85;33.63;;;3.20;92.90;;;;;;4976338;28;20042;-74
2021/01/01 01:36:15;;;;;;;72.47;48.83;;;3.20;92.90;;;;;;4991350;28;20121;-74
2021/01/01 01:38:41;;;;;;;68.65;43.17;;;3.30;92.90;;;;;;4976101;28;20451;-74
2021/01/01 01:41:07;;;;;;;56.65;35.85;;;3.20;92.90;;;;;;4976369;28;20027;-74
2021/01/01 01:43:33;;;;;;;53.78;35.28;;;3.40;92.90;;;;;;4976126;28;20062;-74
2021/01/01 01:45:59;;;;;;;45.88;30.85;;;3.30;92.90;;;;;;4976119;28;20034;-74
2021/01/01 01:48:31;;;;;;;48.63;31.58;;;4.10;92.90;;;;;;4976185;28;20038;-74
2021/01/01 01:50:58;;;;;;;46.83;30.35;;;3.30;92.80;;;;;;4976039;28;20057;-74
2021/01/01 01:53:26;;;;;;;46.55;28.83;;;3.30;92.80;;;;;;4976118;28;20086;-74
2021/01/01 01:55:53;;;;;;;52.40;30.27;;;3.30;92.90;;;;;;4975918;28;20440;-74
2021/01/01 01:58:22;;;;;;;48.58;28.80;;;3.30;92.80;;;;;;4974725;28;20122;-74
2021/01/01 02:03:17;;;;;;;43.38;27.25;;;3.30;92.80;;;;;;4975882;28;20031;-74
2021/01/01 02:05:43;;;;;;;39.25;27.15;;;3.40;92.70;;;;;;4975794;28;20114;-74
2021/01/01 02:08:09;;;;;;;41.85;27.58;;;3.30;92.70;;;;;;4975692;28;20494;-74
2021/01/01 02:10:35;;;;;;;43.65;27.88;;;3.40;92.70;;;;;;4975442;28;20062;-74
2021/01/01 02:13:01;;;;;;;40.40;26.52;;;3.40;92.70;;;;;;4975451;28;20041;-74
2021/01/01 02:15:29;;;;;;;46.92;26.38;;;3.40;92.80;;;;;;4975304;28;20043;-74
2021/01/01 02:17:59;;;;;;;42.83;27.75;;;3.40;92.70;;;;;;4975410;28;20406;-74
2021/01/01 02:20:25;;;;;;;38.83;25.70;;;3.50;92.70;;;;;;4990344;28;20090;-74
2021/01/01 02:22:51;;;;;;;44.70;26.25;;;3.40;92.60;;;;;;4990463;28;20043;-74
2021/01/01 02:25:17;;;;;;;43.08;26.55;;;3.40;92.70;;;;;;4974232;28;20038;-74
2021/01/01 02:27:43;;;;;;;46.10;27.55;;;3.40;92.60;;;;;;4975396;28;20039;-74
2021/01/01 02:30:10;;;;;;;41.25;26.90;;;3.40;92.30;;;;;;4975505;28;20053;-74
2021/01/01 02:32:35;;;;;;;42.22;25.58;;;3.40;92.50;;;;;;4975451;28;20093;-74
2021/01/01 02:35:02;;;;;;;42.35;26.95;;;3.40;92.60;;;;;;4975191;28;20039;-74
2021/01/01 02:37:31;;;;;;;44.45;27.02;;;3.40;92.60;;;;;;4975117;28;20042;-74
2021/01/01 02:39:57;;;;;;;39.03;25.52;;;3.20;92.50;;;;;;4975141;28;20447;-74
2021/01/01 02:42:23;;;;;;;42.85;26.30;;;3.40;92.50;;;;;;4975009;28;20735;-74
2021/01/01 02:44:49;;;;;;;40.95;27.27;;;3.40;92.60;;;;;;4975214;28;20483;-74
2021/01/01 02:47:16;;;;;;;43.90;26.50;;;3.40;92.60;;;;;;4974938;28;20039;-74
2021/01/01 02:49:42;;;;;;;41.67;26.23;;;3.40;92.50;;;;;;4990054;28;20094;-74
2021/01/01 02:52:08;;;;;;;42.08;27.10;;;3.40;92.50;;;;;;4974970;28;20039;-74
2021/01/01 02:54:34;;;;;;;44.03;27.23;;;3.40;92.60;;;;;;4974729;28;20039;-74
2021/01/01 02:56:59;;;;;;;44.20;28.10;;;3.40;92.40;;;;;;4989778;28;20050;-74
2021/01/01 02:59:25;;;;;;;47.50;27.77;;;3.40;92.50;;;;;;4974782;28;20038;-74
2021/01/01 03:01:51;;;;;;;43.33;27.30;;;3.40;92.40;;;;;;4974692;28;20067;-74
2021/01/01 03:04:17;;;;;;;42.92;26.33;;;3.40;92.40;;;;;;4989668;28;20109;-74
2021/01/01 03:06:45;;;;;;;44.28;27.73;;;3.30;92.40;;;;;;4974706;28;20471;-74
2021/01/01 03:09:11;;;;;;;41.00;25.58;;;3.30;92.30;;;;;;4974681;28;20514;-74
2021/01/01 03:11:38;;;;;;;42.70;26.58;;;3.20;92.40;;;;;;4974239;28;20046;-74
2021/01/01 03:14:03;;;;;;;40.42;26.00;;;3.20;92.40;;;;;;4974434;28;20514;-74
2021/01/01 03:16:29;;;;;;;41.70;26.98;;;3.20;92.40;;;;;;4974398;28;20035;-74
2021/01/01 03:18:55;;;;;;;45.88;26.15;;;3.20;92.40;;;;;;4974499;28;20042;-74
2021/01/01 03:21:21;;;;;;;40.95;25.90;;;3.10;92.40;;;;;;4974334;28;20049;-74
2021/01/01 03:23:48;;;;;;;39.78;25.73;;;3.10;92.30;;;;;;4974278;28;20062;-74
2021/01/01 03:26:14;;;;;;;42.83;26.08;;;3.00;92.40;;;;;;4989402;28;20035;-74
2021/01/01 03:28:40;;;;;;;39.83;25.95;;;3.00;92.50;;;;;;4974172;28;20466;-74
2021/01/01 03:31:07;;;;;;;42.40;25.45;;;3.00;92.40;;;;;;4989582;28;20050;-74
2021/01/01 03:33:34;;;;;;;42.08;26.25;;;3.00;92.40;;;;;;4989184;28;20094;-74
2021/01/01 03:36:03;;;;;;;40.47;25.30;;;2.90;92.40;;;;;;4974280;28;20035;-74
2021/01/01 03:38:32;;;;;;;42.35;25.98;;;2.90;92.50;;;;;;4974072;28;20113;-74
2021/01/01 03:40:59;;;;;;;39.80;25.75;;;2.90;92.60;;;;;;4974108;28;20034;-74
2021/01/01 03:43:25;;;;;;;45.60;26.80;;;2.90;92.50;;;;;;4974206;28;20073;-74
2021/01/01 03:45:51;;;;;;;41.80;25.30;;;2.80;92.60;;;;;;4974021;28;20086;-74
2021/01/01 03:48:18;;;;;;;41.20;27.02;;;2.80;92.60;;;;;;4973988;28;20434;-74
2021/01/01 03:50:45;;;;;;;43.10;25.67;;;2.80;92.60;;;;;;4973999;28;20056;-74
2021/01/01 03:53:11;;;;;;;41.72;26.98;;;3.40;92.90;;;;;;4972787;28;20103;-74
2021/01/01 03:55:37;;;;;;;42.33;26.90;;;2.80;92.70;;;;;;4973851;28;20126;-74
2021/01/01 03:58:03;;;;;;;42.08;26.67;;;2.70;92.60;;;;;;4973767;28;20523;-74
2021/01/01 04:00:29;;;;;;;42.35;25.25;;;2.70;92.60;;;;;;4973685;28;20039;-74
2021/01/01 04:02:54;;;;;;;43.47;27.15;;;3.20;92.80;;;;;;4973807;28;20435;-74
2021/01/01 04:05:20;;;;;;;43.75;27.85;;;2.60;92.70;;;;;;4972830;28;20065;-74
2021/01/01 04:07:46;;;;;;;42.28;26.20;;;2.60;92.80;;;;;;4973937;28;20089;-74
2021/01/01 04:10:12;;;;;;;39.85;26.98;;;2.50;92.70;;;;;;4973700;28;20042;-74
2021/01/01 04:12:40;;;;;;;39.53;27.10;;;2.60;92.80;;;;;;4988788;28;20067;-74
2021/01/01 04:15:07;;;;;;;43.80;27.30;;;2.50;92.80;;;;;;4973556;28;20031;-74
2021/01/01 04:17:33;;;;;;;45.08;28.52;;;2.50;92.80;;;;;;4972641;28;20042;-74
2021/01/01 04:19:58;;;;;;;46.78;29.55;;;2.60;92.80;;;;;;4974092;28;20043;-74
2021/01/01 04:22:24;;;;;;;44.03;28.20;;;2.50;92.90;;;;;;4972635;28;20039;-74
2021/01/01 04:24:50;;;;;;;46.33;28.63;;;2.50;92.80;;;;;;4973987;28;20057;-74
2021/01/01 04:27:18;;;;;;;47.95;28.67;;;2.50;92.90;;;;;;4988235;28;20083;-74
2021/01/01 04:29:44;;;;;;;43.33;28.17;;;2.40;92.90;;;;;;4973710;28;20051;-74
2021/01/01 04:32:10;;;;;;;44.85;28.67;;;2.40;92.80;;;;;;4988560;28;20038;-74
2021/01/01 04:34:36;;;;;;;45.13;27.75;;;2.40;92.90;;;;;;4972848;28;20121;-74
2021/01/01 04:37:02;;;;;;;43.65;27.73;;;2.30;92.90;;;;;;4973466;28;20053;-74
2021/01/01 04:39:28;;;;;;;46.17;27.52;;;2.30;92.90;;;;;;4990739;28;20038;-74
2021/01/01 04:41:54;;;;;;;44.08;29.13;;;2.30;92.90;;;;;;4977594;28;20065;-74
2021/01/01 04:44:24;;;;;;;45.47;29.77;;;2.30;92.90;;;;;;4977490;28;20031;-74
2021/01/01 04:46:51;;;;;;;46.53;29.95;;;2.30;92.90;;;;;;4977301;28;20031;-74
2021/01/01 04:49:18;;;;;;;47.70;29.77;;;2.30;93.00;;;;;;4975772;28;20043;-74
2021/01/01 04:51:44;;;;;;;47.72;29.15;;;2.20;93.00;;;;;;4977012;28;20050;-74
2021/01/01 04:54:11;;;;;;;45.05;29.15;;;2.20;93.00;;;;;;4976976;28;20038;-74
2021/01/01 04:56:52;;;;;;;46.35;29.10;;;2.20;93.10;;;;;;4977177;28;20483;-74
2021/01/01 04:59:18;;;;;;;42.92;28.08;;;2.30;93.20;;;;;;4991742;28;20536;-74
2021/01/01 05:01:44;;;;;;;42.97;28.73;;;2.30;93.10;;;;;;4976742;28;20154;-74
2021/01/01 05:04:16;;;;;;;46.95;29.33;;;2.30;93.20;;;;;;4974889;28;20570;-74
2021/01/01 05:06:42;;;;;;;45.88;29.25;;;2.30;93.10;;;;;;4977084;28;20406;-74
2021/01/01 05:09:12;;;;;;;47.63;29.27;;;2.20;93.10;;;;;;4976875;28;20046;-74
2021/01/01 05:11:39;;;;;;;46.33;28.88;;;2.20;93.10;;;;;;4976553;28;20101;-74
2021/01/01 05:14:08;;;;;;;48.95;29.23;;;2.20;93.20;;;;;;4975626;28;20050;-74
2021/01/01 05:16:35;;;;;;;43.08;28.80;;;2.20;93.20;;;;;;4976602;28;20043;-74
2021/01/01 05:19:11;;;;;;;42.67;28.05;;;2.20;93.20;;;;;;4976727;28;20049;-74
2021/01/01 05:21:37;;;;;;;42.60;27.05;;;2.20;93.20;;;;;;4975319;28;20409;-73
2021/01/01 05:24:05;;;;;;;43.65;27.73;;;2.20;93.20;;;;;;4991576;28;20442;-73
2021/01/01 05:26:32;;;;;;;44.22;27.45;;;2.20;93.30;;;;;;4991480;28;20475;-73
2021/01/01 05:29:04;;;;;;;41.03;27.23;;;2.20;93.30;;;;;;4976542;28;20507;-73
2021/01/01 05:31:33;;;;;;;44.13;28.27;;;2.20;93.30;;;;;;4975169;28;20043;-73
2021/01/01 05:34:03;;;;;;;42.13;26.83;;;2.20;93.20;;;;;;4976619;28;20030;-73
2021/01/01 05:36:37;;;;;;;43.47;27.02;;;2.20;93.30;;;;;;4976387;28;20043;-74
2021/01/01 05:39:23;;;;;;;41.58;26.85;;;2.20;93.30;;;;;;4976299;28;20039;-73
2021/01/01 05:41:51;;;;;;;42.13;27.17;;;2.20;93.20;;;;;;4976193;28;20134;-73
2021/01/01 05:44:18;;;;;;;46.80;27.10;;;2.20;93.30;;;;;;4976347;28;20069;-73
2021/01/01 05:46:56;;;;;;;39.90;27.65;;;2.20;93.30;;;;;;4976219;28;20035;-74
2021/01/01 05:49:27;;;;;;;42.55;27.60;;;2.20;93.30;;;;;;4975927;28;20054;-74
2021/01/01 05:52:16;;;;;;;41.30;27.08;;;2.20;93.30;;;;;;4990147;28;20043;-74
2021/01/01 05:54:49;;;;;;;45.95;28.88;;;2.20;93.30;;;;;;4976137;28;20039;-74
2021/01/01 05:57:15;;;;;;;44.40;27.20;;;2.20;93.30;;;;;;4974830;28;20057;-74
2021/01/01 05:59:46;;;;;;;40.80;27.15;;;2.20;93.40;;;;;;4975921;28;20089;-74
2021/01/01 06:02:13;;;;;;;42.75;27.33;;;2.20;93.30;;;;;;4975719;28;20043;-74
2021/01/01 06:04:40;;;;;;;48.63;28.25;;;2.20;93.40;;;;;;4990660;28;20058;-74
2021/01/01 06:07:10;;;;;;;51.03;29.15;;;2.20;93.30;;;;;;4975838;28;20043;-74
2021/01/01 06:09:39;;;;;;;42.90;28.73;;;2.20;93.30;;;;;;4975662;28;20043;-73
2021/01/01 06:12:11;;;;;;;47.80;29.80;;;2.20;93.40;;;;;;4975582;28;20534;-73
2021/01/01 06:14:39;;;;;;;45.47;29.52;;;2.20;93.40;;;;;;4975648;28;20039;-73
2021/01/01 06:17:11;;;;;;;47.08;29.52;;;2.20;93.40;;;;;;4975590;28;20464;-73
2021/01/01 06:19:50;;;;;;;49.13;30.20;;;2.20;93.50;;;;;;4975305;28;20046;-74
2021/01/01 06:22:24;;;;;;;46.10;29.00;;;2.10;93.50;;;;;;4975479;28;20110;-74
2021/01/01 06:25:02;;;;;;;44.63;29.45;;;2.10;93.50;;;;;;4975270;28;20035;-74
2021/01/01 06:27:30;;;;;;;46.25;29.85;;;2.10;93.50;;;;;;4975409;28;20039;-74
2021/01/01 06:30:08;;;;;;;52.90;30.73;;;2.10;93.50;;;;;;4975102;28;20059;-74
2021/01/01 06:32:38;;;;;;;48.08;28.85;;;2.10;93.50;;;;;;4974148;28;20110;-74
2021/01/01 06:35:14;;;;;;;49.17;29.55;;;2.10;93.50;;;;;;4975162;28;20039;-73
2021/01/01 06:37:46;;;;;;;45.50;29.58;;;2.20;93.50;;;;;;4989830;28;20109;-74
2021/01/01 06:40:21;;;;;;;53.53;30.40;;;2.30;93.60;;;;;;4973730;28;20045;-74
2021/01/01 06:42:51;;;;;;;48.00;30.53;;;2.10;93.60;;;;;;4990220;28;20039;-74
2021/01/01 06:45:41;;;;;;;46.65;30.23;;;2.10;93.60;;;;;;4974960;28;20039;-74
2021/01/01 06:48:11;;;;;;;45.28;28.35;;;2.00;93.60;;;;;;4990125;28;20049;-73
2021/01/01 06:50:40;;;;;;;53.08;30.80;;;2.00;93.70;;;;;;4974978;28;20085;-73
2021/01/01 06:53:12;;;;;;;46.17;29.65;;;2.30;93.80;;;;;;4975098;28;20140;-73
2021/01/01 06:55:43;;;;;;;43.65;28.30;;;2.10;93.60;;;;;;4974842;28;20035;-73
2021/01/01 06:58:10;;;;;;;55.72;31.95;;;2.00;93.60;;;;;;4974901;28;20042;-73
2021/01/01 07:00:44;;;;;;;51.63;30.33;;;2.00;93.60;;;;;;4989610;28;20668;-74
2021/01/01 07:03:30;;;;;;;52.93;30.53;;;2.00;93.60;;;;;;4974479;28;20029;-73
2021/01/01 07:06:16;;;;;;;51.78;29.77;;;2.40;93.80;;;;;;4974785;28;20034;-73
2021/01/01 07:08:42;;;;;;;52.22;31.25;;;2.00;93.80;;;;;;4974672;28;20043;-73
2021/01/01 07:11:11;;;;;;;56.00;30.40;;;2.10;93.80;;;;;;4974380;28;20055;-73
2021/01/01 07:13:40;;;;;;;54.53;31.45;;;2.10;93.80;;;;;;4989577;28;20038;-73
2021/01/01 07:16:06;;;;;;;54.88;32.53;;;2.10;93.80;;;;;;4989495;28;20046;-74
2021/01/01 07:18:32;;;;;;;52.13;31.17;;;2.10;93.80;;;;;;4974380;28;20043;-73
2021/01/01 07:21:05;;;;;;;53.08;31.88;;;2.10;93.90;;;;;;4974387;28;20059;-73
2021/01/01 07:23:31;;;;;;;57.17;31.52;;;2.10;94.00;;;;;;4973000;28;20038;-73
2021/01/01 07:25:58;;;;;;;53.35;31.05;;;2.10;94.20;;;;;;4974518;28;20118;-74
2021/01/01 07:28:26;;;;;;;56.42;32.03;;;2.10;94.00;;;;;;4974260;28;20062;-73
2021/01/01 07:30:52;;;;;;;51.42;31.73;;;2.10;94.00;;;;;;4974424;28;20049;-74
2021/01/01 07:33:22;;;;;;;55.10;31.83;;;2.10;94.10;;;;;;4974262;28;20085;-74
2021/01/01 07:35:56;;;;;;;53.95;30.65;;;2.10;94.10;;;;;;4989286;28;20539;-73
2021/01/01 07:38:24;;;;;;;61.72;33.10;;;2.20;94.00;;;;;;4973951;28;20106;-73
2021/01/01 07:40:50;;;;;;;49.50;30.52;;;2.20;94.30;;;;;;4974398;28;20047;-73
2021/01/01 07:43:17;;;;;;;57.13;31.33;;;2.20;94.20;;;;;;4974118;28;20039;-73
2021/01/01 07:45:43;;;;;;;55.70;32.13;;;2.80;94.10;;;;;;4974133;28;20038;-73
2021/01/01 07:48:09;;;;;;;55.45;31.77;;;2.20;93.90;;;;;;4974070;28;20069;-74
2021/01/01 07:50:36;;;;;;;54.63;31.85;;;2.00;93.90;;;;;;4973824;28;20428;-74
2021/01/01 07:53:07;;;;;;;52.45;30.50;;;2.20;94.00;;;;;;4974040;28;20043;-74
2021/01/01 07:55:34;;;;;;;48.28;28.60;;;2.20;94.00;;;;;;4973817;28;20459;-74
2021/01/01 07:58:13;;;;;;;47.70;30.35;;;2.60;94.10;;;;;;4973886;28;20046;-74
2021/01/01 08:00:45;;;;;;;53.20;30.92;;;2.10;94.00;;;;;;4973494;28;20133;-74
2021/01/01 08:03:12;;;;;;;45.83;27.88;;;2.80;94.10;;;;;;4988706;28;20045;-74
2021/01/01 08:05:38;;;;;;;50.38;29.52;;;2.10;94.00;;;;;;4973865;28;20042;-74
2021/01/01 08:08:12;;;;;;;49.40;28.52;;;2.10;93.90;;;;;;4973582;28;20089;-74
2021/01/01 08:10:38;;;;;;;47.22;29.17;;;2.10;93.90;;;;;;4988570;28;20385;-74
2021/01/01 08:13:14;;;;;;;48.10;28.00;;;2.10;93.90;;;;;;4987754;28;20047;-74
2021/01/01 08:15:42;;;;;;;46.20;28.90;;;2.10;94.00;;;;;;4973718;28;20043;-74
2021/01/01 08:18:15;;;;;;;50.95;28.13;;;2.00;94.00;;;;;;4973515;28;20038;-74
2021/01/01 08:20:46;;;;;;;46.97;26.88;;;2.10;94.20;;;;;;4988695;28;20469;-74
2021/01/01 08:23:17;;;;;;;46.13;28.55;;;2.10;94.10;;;;;;4973517;28;20043;-74
2021/01/01 08:25:48;;;;;;;48.97;28.17;;;2.10;94.10;;;;;;4972588;28;20046;-74
2021/01/01 08:28:35;;;;;;;42.22;27.13;;;3.20;94.40;;;;;;4973463;28;20123;-74
2021/01/01 08:31:03;;;;;;;45.63;26.75;;;2.10;94.10;;;;;;4973645;28;20046;-74
2021/01/01 08:33:36;;;;;;;43.47;26.65;;;2.10;94.10;;;;;;4988398;28;20078;-74
2021/01/01 08:36:10;;;;;;;44.35;26.63;;;2.10;94.10;;;;;;4973426;28;20043;-74
2021/01/01 08:38:37;;;;;;;48.10;27.33;;;2.10;94.10;;;;;;4973262;28;20502;-74
2021/01/01 08:41:05;;;;;;;39.85;25.52;;;2.10;94.10;;;;;;4973523;28;20043;-74
2021/01/01 08:43:31;;;;;;;44.20;25.90;;;2.10;94.10;;;;;;4973426;28;20042;-74
2021/01/01 08:45:57;;;;;;;46.22;26.63;;;2.10;94.00;;;;;;4973511;28;20039;-74
2021/01/01 08:48:30;;;;;;;41.38;24.33;;;2.10;94.00;;;;;;4973503;28;20043;-74
2021/01/01 08:50:56;;;;;;;40.53;23.60;;;2.10;94.10;;;;;;4988461;28;20494;-74
2021/01/01 08:53:22;;;;;;;46.35;25.30;;;2.10;94.10;;;;;;4973418;28;20049;-74
2021/01/01 08:56:07;;;;;;;42.17;25.08;;;2.20;94.20;;;;;;4972192;28;20593;-74
2021/01/01 08:58:34;;;;;;;46.15;24.63;;;2.20;94.30;;;;;;4973474;28;20066;-74
2021/01/01 09:01:17;;;;;;;44.58;25.05;;;2.30;94.40;;;;;;4987917;28;20034;-74
2021/01/01 09:03:43;;;;;;;38.63;23.35;;;2.30;94.40;;;;;;4973369;28;20039;-74
2021/01/01 09:06:17;;;;;;;42.78;24.58;;;2.40;94.30;;;;;;4973137;28;20118;-74
2021/01/01 09:08:46;;;;;;;41.08;23.63;;;2.40;94.40;;;;;;4972111;28;20039;-74
2021/01/01 09:11:22;;;;;;;41.53;24.23;;;2.50;94.30;;;;;;4973029;28;20054;-74
2021/01/01 09:14:08;;;;;;;40.47;23.85;;;2.50;94.30;;;;;;4973296;28;20047;-74
2021/01/01 09:16:34;;;;;;;41.80;22.98;;;2.60;94.30;;;;;;4971662;28;20399;-74
2021/01/01 09:19:10;;;;;;;40.50;21.50;;;2.60;94.20;;;;;;4973186;28;20042;-74
2021/01/01 09:21:36;;;;;;;36.80;21.75;;;2.60;94.20;;;;;;4987903;28;20093;-74
2021/01/01 09:24:02;;;;;;;39.13;21.98;;;2.60;94.10;;;;;;4973145;28;20047;-74
2021/01/01 09:26:29;;;;;;;36.17;21.33;;;2.60;94.10;;;;;;4975083;28;20050;-74
2021/01/01 09:29:14;;;;;;;37.88;21.58;;;2.60;94.10;;;;;;4976746;28;20054;-74
2021/01/01 09:31:45;;;;;;;37.92;22.75;;;2.60;94.10;;;;;;4976515;28;20065;-74
2021/01/01 09:34:10;;;;;;;38.83;20.70;;;2.60;94.20;;;;;;4976528;28;20039;-74
2021/01/01 09:36:38;;;;;;;34.17;21.33;;;2.60;94.20;;;;;;4975173;28;20058;-74
2021/01/01 09:39:11;;;;;;;36.80;20.77;;;2.60;94.20;;;;;;4976236;28;20049;-74
2021/01/01 09:41:39;;;;;;;36.47;19.90;;;2.60;94.30;;;;;;4975077;28;20057;-74
2021/01/01 09:44:05;;;;;;;32.60;19.23;;;2.60;94.60;;;;;;4991263;28;20118;-74
2021/01/01 09:46:31;;;;;;;34.90;19.83;;;2.70;94.30;;;;;;4976217;28;20038;-74
2021/01/01 09:48:57;;;;;;;34.45;19.33;;;2.70;94.40;;;;;;4976052;28;20380;-74
2021/01/01 09:51:23;;;;;;;32.63;19.40;;;2.70;94.40;;;;;;4976085;28;20031;-74
2021/01/01 09:53:48;;;;;;;34.13;19.63;;;2.80;94.40;;;;;;4990906;28;20042;-74
2021/01/01 09:56:14;;;;;;;30.77;17.75;;;2.90;94.40;;;;;;4976059;28;20062;-74
2021/01/01 09:58:40;;;;;;;32.55;17.33;;;4.00;94.70;;;;;;4975832;28;20502;-74
2021/01/01 10:01:06;;;;;;;31.30;18.05;;;2.90;94.40;;;;;;4990751;28;20034;-74
2021/01/01 10:03:31;;;;;;;29.85;17.90;;;3.00;94.40;;;;;;4975997;28;20042;-74
2021/01/01 10:05:57;;;;;;;32.92;18.30;;;3.00;94.40;;;;;;4990688;28;20069;-74
2021/01/01 10:08:23;;;;;;;28.38;17.42;;;3.60;94.60;;;;;;4990831;28;20026;-74
2021/01/01 10:10:49;;;;;;;29.90;17.05;;;3.10;94.50;;;;;;4975561;28;20522;-74
2021/01/01 10:13:15;;;;;;;28.92;17.80;;;3.20;94.50;;;;;;4987269;28;20122;-74
2021/01/01 10:15:41;;;;;;;30.58;16.50;;;3.30;94.80;;;;;;4966310;28;20039;-74
2021/01/01 10:18:06;;;;;;;29.35;17.00;;;4.10;94.70;;;;;;4975612;28;20102;-74
2021/01/01 10:20:32;;;;;;;31.17;16.02;;;3.40;94.50;;;;;;4975537;28;20654;-74
2021/01/01 10:22:58;;;;;;;25.90;15.43;;;3.40;94.40;;;;;;4975491;28;20043;-73
2021/01/01 10:25:24;;;;;;;26.02;15.63;;;3.50;94.50;;;;;;4975645;28;20050;-74
2021/01/01 10:27:50;;;;;;;26.67;15.38;;;3.60;94.50;;;;;;4975635;28;20490;-74
2021/01/01 10:30:16;;;;;;;23.88;14.55;;;3.60;94.30;;;;;;4975454;28;20118;-74
2021/01/01 10:32:42;;;;;;;26.23;14.77;;;3.60;94.30;;;;;;4975428;28;20145;-74
2021/01/01 10:35:09;;;;;;;22.58;13.80;;;3.70;94.40;;;;;;4975241;28;20113;-74
2021/01/01 10:37:35;;;;;;;24.23;13.80;;;3.70;94.40;;;;;;4989712;28;20042;-74
2021/01/01 10:40:01;;;;;;;23.88;14.27;;;3.80;94.40;;;;;;4975153;28;20053;-74
2021/01/01 10:42:30;;;;;;;22.60;12.90;;;3.80;94.30;;;;;;4975212;28;20042;-74
2021/01/01 10:44:56;;;;;;;20.83;12.88;;;3.90;94.30;;;;;;4975215;28;20043;-74
2021/01/01 10:47:21;;;;;;;20.13;12.35;;;3.90;94.20;;;;;;4975053;28;20033;-74
2021/01/01 10:49:47;;;;;;;19.65;11.50;;;4.00;94.30;;;;;;4975125;28;20402;-74
2021/01/01 10:52:13;;;;;;;21.42;11.48;;;4.00;94.30;;;;;;4974924;28;20066;-74
2021/01/01 10:54:39;;;;;;;20.63;10.50;;;4.10;94.40;;;;;;4990096;28;20085;-74
2021/01/01 10:57:08;;;;;;;14.30;10.15;;;4.10;94.20;;;;;;4989908;28;20035;-74
2021/01/01 10:59:33;;;;;;;16.60;9.70;;;4.10;94.20;;;;;;4989820;28;20046;-74
2021/01/01 11:02:00;;;;;;;15.80;10.00;;;4.20;94.10;;;;;;4989671;28;20035;-74
2021/01/01 11:04:26;;;;;;;18.75;10.73;;;4.20;94.10;;;;;;4989610;28;20043;-74
2021/01/01 11:06:52;;;;;;;16.05;9.48;;;4.20;94.10;;;;;;4973565;28;20034;-74
2021/01/01 11:09:18;;;;;;;17.77;10.15;;;4.20;94.10;;;;;;4989585;28;20039;-74
2021/01/01 11:11:48;;;;;;;18.27;10.20;;;4.20;94.10;;;;;;4974480;28;20411;-74
2021/01/01 12:26:45;;;;;;;9.38;4.45;;;5.40;94.30;;;;;;4973696;28;20047;-74
2021/01/01 12:29:12;;;;;;;5.47;3.17;;;5.40;94.00;;;;;;4973481;28;20398;-74
2021/01/01 12:31:40;;;;;;;9.35;3.55;;;5.50;93.70;;;;;;4973324;28;20523;-74
2021/01/01 12:34:06;;;;;;;6.78;3.40;;;5.50;93.70;;;;;;4988476;28;20046;-74
2021/01/01 12:36:32;;;;;;;5.28;3.67;;;5.60;93.80;;;;;;4988527;28;20058;-74
2021/01/01 12:39:01;;;;;;;9.75;3.85;;;5.70;93.60;;;;;;4988394;28;20078;-75
2021/01/01 12:41:28;;;;;;;5.63;3.63;;;5.60;93.60;;;;;;4973480;28;20043;-75
2021/01/01 12:43:54;;;;;;;6.88;4.00;;;6.60;93.80;;;;;;4988554;28;20118;-75
2021/01/01 12:46:21;;;;;;;6.80;3.83;;;5.70;93.60;;;;;;4988314;28;20043;-75
2021/01/01 12:48:46;;;;;;;6.97;3.53;;;5.70;93.60;;;;;;4973239;28;20031;-75
2021/01/01 12:51:12;;;;;;;6.57;3.47;;;5.70;93.50;;;;;;4988428;28;20462;-73
2021/01/01 12:53:39;;;;;;;6.13;3.50;;;5.70;93.80;;;;;;4973373;28;20050;-74
2021/01/01 12:56:07;;;;;;;5.50;3.47;;;5.70;93.60;;;;;;4978863;28;20034;-75
2021/01/01 12:58:37;;;;;;;6.20;3.17;;;5.70;93.60;;;;;;4979408;28;20035;-73
2021/01/01 13:01:03;;;;;;;5.28;3.35;;;5.80;93.60;;;;;;4976053;28;20180;-73
2021/01/01 13:03:29;;;;;;;7.63;3.45;;;5.90;93.50;;;;;;4975949;28;20076;-74
2021/01/01 13:05:54;;;;;;;7.25;3.28;;;5.70;93.60;;;;;;4977050;28;20062;-74
2021/01/01 13:08:20;;;;;;;10.77;3.70;;;5.90;93.70;;;;;;4976842;28;20046;-75
2021/01/01 13:10:46;;;;;;;6.20;3.72;;;5.70;93.60;;;;;;4991808;28;20553;-73
2021/01/01 13:13:15;;;;;;;6.47;4.05;;;5.70;93.60;;;;;;4976521;28;20058;-73
2021/01/01 13:15:40;;;;;;;6.88;4.10;;;5.80;93.70;;;;;;4976766;28;20035;-74
2021/01/01 13:18:06;;;;;;;7.80;3.80;;;5.80;93.70;;;;;;4991720;28;20057;-74
2021/01/01 13:20:32;;;;;;;7.63;4.03;;;6.10;93.80;;;;;;4976807;28;20041;-75
2021/01/01 13:22:59;;;;;;;6.07;3.05;;;6.00;93.70;;;;;;4976648;28;20042;-75
2021/01/01 13:25:25;;;;;;;7.43;3.17;;;6.00;93.50;;;;;;4991733;28;20038;-75
2021/01/01 13:27:50;;;;;;;6.97;2.85;;;6.00;93.40;;;;;;4975452;28;20050;-73
2021/01/01 13:30:19;;;;;;;4.25;2.80;;;6.00;93.40;;;;;;4991348;28;20034;-73
2021/01/01 13:32:45;;;;;;;4.88;3.10;;;6.10;93.40;;;;;;4975219;28;20042;-74
2021/01/01 13:35:13;;;;;;;4.63;2.65;;;6.00;93.30;;;;;;4976230;28;20050;-74
2021/01/01 13:37:42;;;;;;;10.50;3.08;;;6.00;93.20;;;;;;4976402;28;20399;-74
2021/01/01 13:40:08;;;;;;;7.43;2.72;;;6.00;93.30;;;;;;4976128;28;20037;-75
2021/01/01 13:42:34;;;;;;;7.38;2.88;;;6.00;93.30;;;;;;4976115;28;20066;-75
2021/01/01 13:45:00;;;;;;;5.60;2.90;;;6.00;93.20;;;;;;4976180;28;20073;-75
2021/01/01 13:47:27;;;;;;;6.20;3.00;;;6.20;93.10;;;;;;4991086;28;20122;-74
2021/01/01 13:49:55;;;;;;;7.00;2.50;;;6.10;92.80;;;;;;4976219;28;20131;-74
2021/01/01 13:52:21;;;;;;;4.68;2.30;;;6.10;92.80;;;;;;4990678;28;20035;-75
2021/01/01 13:54:47;;;;;;;6.05;2.40;;;6.10;92.50;;;;;;4991209;28;20059;-75
2021/01/01 13:57:13;;;;;;;5.60;2.40;;;6.20;92.50;;;;;;4975810;28;20079;-73